Time;durP1;ratioP1;P1;durP2;ratioP2;P2;SDS_P1;SDS_P2;PMS_P1;PMS_P2;Temp;Humidity;BMP_temperature;BMP_pressure;BME280_temperature;BME280_humidity;BME280_pressure;Samples;Min_cycle;Max_cycle;Signal;HPM_P1;HPM_P2
2023/04/28 00:00:56;;;;;;;10.40;5.50;;;;;;;8.90;53.18;99608.72;5046413;28;20075;-74
2023/04/28 00:03:21;;;;;;;6.78;5.18;;;;;;;8.85;53.19;99607.72;5044940;28;20374;-74
2023/04/28 00:05:48;;;;;;;9.10;5.82;;;;;;;8.88;53.82;99608.22;5047834;28;20488;-74
2023/04/28 00:08:14;;;;;;;12.65;5.50;;;;;;;8.84;53.79;99600.50;5051425;28;20017;-74
2023/04/28 00:10:39;;;;;;;12.10;5.57;;;;;;;8.78;54.54;99606.53;5053033;28;20043;-73
2023/04/28 00:13:05;;;;;;;9.73;5.00;;;;;;;8.73;54.80;99610.28;5046638;28;20029;-74
2023/04/28 00:15:30;;;;;;;7.32;5.47;;;;;;;8.66;55.17;99607.94;5032967;28;20412;-73
2023/04/28 00:17:55;;;;;;;10.10;6.50;;;;;;;8.68;55.59;99614.03;5034799;28;20025;-73
2023/04/28 00:20:21;;;;;;;6.38;5.65;;;;;;;8.56;56.47;99600.66;5036474;28;20033;-74
2023/04/28 00:22:48;;;;;;;9.55;6.05;;;;;;;8.47;57.10;99608.13;5032873;28;20496;-74
2023/04/28 00:25:13;;;;;;;14.18;7.15;;;;;;;8.40;57.24;99608.56;5032663;28;20013;-73
2023/04/28 00:27:39;;;;;;;9.75;6.65;;;;;;;8.39;57.25;99604.16;5032760;28;20088;-74
2023/04/28 00:30:05;;;;;;;9.48;6.63;;;;;;;8.25;58.58;99612.56;5039135;28;20021;-73
2023/04/28 00:32:31;;;;;;;8.45;6.65;;;;;;;8.19;59.13;99616.59;5049079;28;20096;-73
2023/04/28 00:34:57;;;;;;;13.98;6.82;;;;;;;7.98;59.74;99614.31;5031540;28;20406;-72
2023/04/28 00:37:22;;;;;;;11.35;7.63;;;;;;;7.85;60.55;99612.38;5033683;28;20056;-73
2023/04/28 00:39:47;;;;;;;11.88;7.03;;;;;;;7.72;60.59;99617.69;5041731;28;20036;-73
2023/04/28 00:42:14;;;;;;;9.80;6.93;;;;;;;7.87;60.48;99613.69;5046175;28;20104;-73
2023/04/28 00:44:40;;;;;;;13.00;6.75;;;;;;;7.98;60.03;99613.47;5032172;28;20045;-73
2023/04/28 00:47:07;;;;;;;16.13;7.75;;;;;;;8.07;59.64;99610.75;5032469;28;20060;-73
2023/04/28 00:49:34;;;;;;;12.73;7.40;;;;;;;7.73;60.03;99619.31;5032395;28;20420;-73
2023/04/28 00:52:06;;;;;;;12.18;7.85;;;;;;;7.82;60.14;99626.91;5045809;28;20024;-73
2023/04/28 00:54:33;;;;;;;10.93;6.88;;;;;;;7.94;59.75;99627.19;5052183;28;20029;-73
2023/04/28 00:56:59;;;;;;;6.72;6.00;;;;;;;7.82;60.28;99630.53;5050828;28;20025;-73
2023/04/28 00:59:24;;;;;;;10.18;6.55;;;;;;;7.82;60.41;99632.50;5050714;28;20036;-73
2023/04/28 01:01:50;;;;;;;11.52;7.18;;;;;;;7.71;60.55;99629.91;5052137;28;20021;-73
2023/04/28 01:04:19;;;;;;;15.80;7.32;;;;;;;7.76;60.88;99633.75;5049449;28;20502;-73
2023/04/28 01:06:45;;;;;;;8.45;7.03;;;;;;;7.51;61.39;99630.38;5030952;28;20124;-73
2023/04/28 01:09:11;;;;;;;8.38;6.38;;;;;;;7.42;61.17;99636.66;5046669;28;20032;-73
2023/04/28 01:11:36;;;;;;;14.25;6.32;;;;;;;7.27;61.50;99634.19;5039921;28;20029;-73
2023/04/28 01:14:02;;;;;;;11.23;7.25;;;;;;;7.59;60.82;99626.84;5031961;28;20032;-73
2023/04/28 01:16:29;;;;;;;7.45;6.35;;;;;;;7.90;59.78;99626.19;5031997;28;20075;-73
2023/04/28 01:18:54;;;;;;;9.05;6.43;;;;;;;7.73;60.28;99636.03;5030398;28;20025;-73
2023/04/28 01:21:33;;;;;;;10.38;6.50;;;;;;;7.73;60.11;99626.84;5040627;28;20031;-73
2023/04/28 01:23:59;;;;;;;15.63;7.57;;;;;;;7.54;59.73;99622.25;5043655;28;20032;-73
2023/04/28 01:26:25;;;;;;;12.48;6.93;;;;;;;7.56;59.72;99630.25;5031742;28;20049;-73
2023/04/28 01:28:51;;;;;;;9.23;6.22;;;;;;;7.71;59.51;99626.34;5030830;28;20456;-73
2023/04/28 01:31:17;;;;;;;9.10;6.15;;;;;;;7.89;59.16;99630.13;5037863;28;21556;-73
2023/04/28 01:33:42;;;;;;;11.02;6.55;;;;;;;8.00;58.76;99633.47;5031538;28;20489;-73
2023/04/28 01:36:08;;;;;;;10.93;7.28;;;;;;;7.89;58.84;99638.47;5047466;28;20021;-73
2023/04/28 01:38:33;;;;;;;8.10;5.47;;;;;;;7.50;58.11;99631.53;5051519;28;20032;-74
2023/04/28 01:41:01;;;;;;;6.93;5.55;;;;;;;7.43;57.77;99629.97;5037458;28;20065;-73
2023/04/28 01:43:27;;;;;;;8.02;5.93;;;;;;;7.28;58.72;99630.28;5031235;28;20045;-73
2023/04/28 01:45:52;;;;;;;7.88;6.05;;;;;;;7.33;58.41;99632.16;5031515;28;20111;-73
2023/04/28 01:48:17;;;;;;;9.35;5.32;;;;;;;7.42;56.81;99630.25;5030771;28;20022;-74
2023/04/28 01:50:43;;;;;;;7.03;5.30;;;;;;;7.52;56.37;99632.84;5045832;28;20032;-73
2023/04/28 01:53:08;;;;;;;6.80;5.43;;;;;;;7.63;57.38;99641.81;5051281;28;20029;-73
2023/04/28 01:55:34;;;;;;;7.82;6.07;;;;;;;7.56;58.03;99638.63;5051053;28;20032;-73
2023/04/28 01:57:59;;;;;;;8.20;6.13;;;;;;;7.37;58.85;99638.72;5048936;28;20036;-73
2023/04/28 02:00:26;;;;;;;7.93;5.88;;;;;;;7.25;59.43;99630.91;5048682;28;20033;-73
2023/04/28 02:02:51;;;;;;;8.30;6.25;;;;;;;7.28;59.12;99631.09;5045995;28;20035;-73
2023/04/28 02:05:17;;;;;;;8.90;6.35;;;;;;;7.21;59.39;99635.41;5035300;28;20037;-73
2023/04/28 02:07:42;;;;;;;8.25;6.03;;;;;;;7.19;59.79;99637.69;5031174;28;20032;-73
2023/04/28 02:10:08;;;;;;;10.85;6.15;;;;;;;7.15;59.53;99631.91;5039998;28;20028;-73
2023/04/28 02:12:33;;;;;;;10.80;5.93;;;;;;;7.06;59.26;99639.31;5051057;28;20059;-73
2023/04/28 02:14:59;;;;;;;7.72;6.32;;;;;;;6.94;59.19;99637.88;5049792;28;20052;-73
2023/04/28 02:17:25;;;;;;;12.95;6.35;;;;;;;6.93;59.92;99640.97;5050451;28;20020;-72
2023/04/28 02:19:57;;;;;;;7.50;5.57;;;;;;;7.06;59.45;99631.81;5043012;28;20061;-73
2023/04/28 02:22:23;;;;;;;9.45;6.38;;;;;;;6.97;59.03;99642.00;5031222;28;20095;-71
2023/04/28 02:24:49;;;;;;;9.63;6.45;;;;;;;6.53;59.88;99639.44;5050059;28;20037;-73
2023/04/28 02:27:14;;;;;;;8.85;6.78;;;;;;;6.51;60.21;99646.41;5050968;28;20434;-73
2023/04/28 02:29:41;;;;;;;7.72;6.22;;;;;;;6.60;59.83;99644.59;5048252;28;20031;-73
2023/04/28 02:32:06;;;;;;;7.57;5.95;;;;;;;6.67;59.43;99644.22;5038700;28;20120;-73
2023/04/28 02:34:32;;;;;;;6.80;5.80;;;;;;;6.80;59.25;99654.53;5030880;28;20025;-73
2023/04/28 02:36:58;;;;;;;7.13;5.43;;;;;;;6.79;59.29;99650.09;5031008;28;20021;-73
2023/04/28 02:39:25;;;;;;;6.38;5.72;;;;;;;6.71;59.32;99662.75;5046181;28;20029;-73
2023/04/28 02:41:53;;;;;;;6.28;4.90;;;;;;;6.72;58.87;99655.22;5049251;28;20040;-73
2023/04/28 02:44:19;;;;;;;11.10;6.20;;;;;;;6.93;58.30;99663.22;5030748;28;20107;-73
2023/04/28 02:46:45;;;;;;;6.63;5.13;;;;;;;6.94;58.25;99662.06;5031678;28;20148;-72
2023/04/28 02:49:10;;;;;;;10.35;5.60;;;;;;;7.27;57.57;99675.94;5039528;28;20036;-73
2023/04/28 02:51:36;;;;;;;18.27;5.60;;;;;;;7.38;57.00;99680.16;5050663;28;20037;-73
2023/04/28 02:54:02;;;;;;;7.53;5.15;;;;;;;7.41;56.49;99678.72;5048828;28;20052;-73
2023/04/28 02:56:28;;;;;;;6.50;4.63;;;;;;;7.54;56.63;99679.84;5038299;28;20095;-73
2023/04/28 02:58:54;;;;;;;5.70;4.70;;;;;;;7.70;57.11;99686.75;5032367;28;20033;-73
2023/04/28 03:01:19;;;;;;;13.48;4.97;;;;;;;7.77;55.88;99682.72;5049644;28;20477;-73
2023/04/28 03:03:45;;;;;;;7.05;4.65;;;;;;;7.85;55.54;99687.59;5041525;28;20614;-73
2023/04/28 03:06:10;;;;;;;6.22;4.70;;;;;;;7.94;54.73;99690.44;5052807;28;20112;-72
2023/04/28 03:08:36;;;;;;;8.70;5.22;;;;;;;7.95;54.91;99683.75;5038272;28;20037;-72
2023/04/28 03:11:02;;;;;;;13.07;4.90;;;;;;;8.08;54.89;99695.97;5034272;28;20021;-72
2023/04/28 03:13:28;;;;;;;15.70;5.32;;;;;;;8.12;56.12;99703.41;5034560;28;20460;-73
2023/04/28 03:15:54;;;;;;;8.27;5.55;;;;;;;8.04;56.01;99706.09;5039771;28;20036;-73
2023/04/28 03:18:21;;;;;;;20.40;7.28;;;;;;;8.04;55.56;99708.91;5051980;28;20033;-72
2023/04/28 03:20:47;;;;;;;8.45;6.18;;;;;;;8.14;54.59;99712.31;5043058;28;20064;-73
2023/04/28 03:23:12;;;;;;;13.07;5.97;;;;;;;8.10;53.82;99714.03;5038603;28;20480;-73
2023/04/28 03:25:38;;;;;;;12.75;5.25;;;;;;;7.97;54.10;99712.94;5046016;28;20567;-73
2023/04/28 03:28:04;;;;;;;9.63;5.60;;;;;;;7.81;54.67;99718.00;5046492;28;20033;-72
2023/04/28 03:30:29;;;;;;;10.75;4.80;;;;;;;7.92;54.65;99715.81;5052857;28;20044;-72
2023/04/28 03:32:55;;;;;;;6.63;5.07;;;;;;;7.97;54.17;99717.69;5035743;28;20037;-73
2023/04/28 03:35:20;;;;;;;6.63;5.40;;;;;;;7.91;53.33;99718.94;5033740;28;20033;-73
2023/04/28 03:37:46;;;;;;;11.02;5.47;;;;;;;7.83;53.28;99728.81;5033722;28;20037;-72
2023/04/28 03:40:12;;;;;;;7.32;5.10;;;;;;;7.86;53.08;99731.00;5033048;28;20117;-72
2023/04/28 03:42:37;;;;;;;11.02;6.10;;;;;;;7.78;53.17;99738.09;5033562;28;20519;-74
2023/04/28 03:45:03;;;;;;;9.13;5.45;;;;;;;7.89;52.99;99738.72;5037373;28;20033;-75
2023/04/28 03:47:28;;;;;;;8.52;5.97;;;;;;;8.03;52.74;99733.16;5053478;28;20035;-75
2023/04/28 03:49:54;;;;;;;8.32;6.78;;;;;;;8.03;52.49;99743.47;5053640;28;20025;-75
2023/04/28 03:52:19;;;;;;;12.60;6.50;;;;;;;8.04;52.64;99742.31;5052390;28;20412;-75
2023/04/28 03:54:45;;;;;;;19.65;8.10;;;;;;;8.14;52.02;99744.91;5036533;28;20535;-78
2023/04/28 03:57:11;;;;;;;16.42;7.10;;;;;;;8.24;52.21;99741.03;5046333;28;20059;-78
2023/04/28 03:59:36;;;;;;;14.00;6.10;;;;;;;8.18;51.25;99739.53;5053920;28;20056;-77
2023/04/28 04:02:05;;;;;;;13.32;6.85;;;;;;;8.26;51.20;99742.41;5046275;28;20488;-79
2023/04/28 04:04:30;;;;;;;11.40;6.03;;;;;;;8.33;50.83;99763.47;5042445;28;20152;-79
2023/04/28 04:06:56;;;;;;;10.23;6.63;;;;;;;8.49;50.94;99769.47;5033380;28;20889;-77
2023/04/28 04:09:22;;;;;;;15.02;6.65;;;;;;;8.42;51.19;99767.97;5033714;28;20084;-76
2023/04/28 04:11:47;;;;;;;14.10;7.45;;;;;;;8.52;51.19;99769.72;5041511;28;20507;-77
2023/04/28 04:14:13;;;;;;;16.33;8.25;;;;;;;8.70;50.70;99778.25;5034353;28;20061;-77
2023/04/28 04:16:38;;;;;;;18.25;7.47;;;;;;;8.86;51.18;99787.06;5052192;28;20036;-76
2023/04/28 04:19:04;;;;;;;7.85;6.05;;;;;;;8.92;50.62;99779.41;5052368;28;20476;-77
2023/04/28 04:21:30;;;;;;;10.82;6.00;;;;;;;8.97;50.17;99782.88;5050761;28;20047;-73
2023/04/28 04:23:56;;;;;;;11.40;5.82;;;;;;;8.98;49.64;99790.09;5052993;28;20028;-73
2023/04/28 04:26:21;;;;;;;11.57;6.15;;;;;;;8.94;49.82;99799.44;5049406;28;20029;-73
2023/04/28 04:28:47;;;;;;;7.45;5.32;;;;;;;8.95;50.71;99795.53;5032851;28;20029;-74
2023/04/28 04:31:12;;;;;;;9.77;4.97;;;;;;;9.00;50.58;99795.38;5032933;28;20049;-74
2023/04/28 04:33:38;;;;;;;10.82;5.25;;;;;;;9.27;49.47;99807.56;5051313;28;20037;-74
2023/04/28 04:36:04;;;;;;;11.73;5.22;;;;;;;9.51;49.87;99800.81;5049839;28;20017;-74
2023/04/28 04:38:29;;;;;;;7.60;5.75;;;;;;;9.62;48.82;99796.59;5050709;28;20860;-74
2023/04/28 04:40:55;;;;;;;13.25;6.20;;;;;;;9.58;49.44;99801.19;5044712;28;20036;-74
2023/04/28 04:43:21;;;;;;;14.65;4.70;;;;;;;9.62;48.79;99802.19;5047674;28;20484;-77
2023/04/28 04:45:47;;;;;;;8.55;4.35;;;;;;;9.85;48.61;99804.91;5049214;28;20033;-74
2023/04/28 04:48:12;;;;;;;10.57;4.57;;;;;;;9.94;48.00;99814.16;5049910;28;20024;-74
2023/04/28 04:50:38;;;;;;;11.95;4.88;;;;;;;10.03;47.75;99810.59;5030027;28;20095;-73
2023/04/28 04:53:03;;;;;;;7.53;5.03;;;;;;;10.15;47.10;99813.59;5029107;28;20033;-77
2023/04/28 04:55:29;;;;;;;9.50;5.40;;;;;;;10.02;47.86;99818.13;5039484;28;20068;-76
2023/04/28 04:57:54;;;;;;;8.60;4.38;;;;;;;10.00;48.05;99811.22;5033971;28;20025;-78
2023/04/28 05:00:20;;;;;;;10.13;4.38;;;;;;;10.15;46.98;99823.94;5033188;28;20036;-76
2023/04/28 05:02:46;;;;;;;6.60;4.32;;;;;;;10.32;47.72;99820.38;5036949;28;20033;-76
2023/04/28 05:05:11;;;;;;;11.13;4.82;;;;;;;10.42;46.83;99820.09;5036398;28;20097;-75
2023/04/28 05:07:37;;;;;;;12.23;5.72;;;;;;;10.27;46.92;99834.53;5038573;28;20029;-77
2023/04/28 05:10:03;;;;;;;12.38;6.15;;;;;;;10.29;46.44;99826.63;5037002;28;20068;-76
2023/04/28 05:12:28;;;;;;;11.35;4.95;;;;;;;10.52;45.91;99831.00;5027917;28;20052;-75
2023/04/28 05:14:54;;;;;;;8.70;5.40;;;;;;;10.76;45.26;99828.88;5029242;28;20072;-76
2023/04/28 05:17:19;;;;;;;7.93;3.67;;;;;;;10.47;45.26;99825.53;5040877;28;20035;-75
2023/04/28 05:19:45;;;;;;;9.00;5.47;;;;;;;10.38;45.45;99821.88;5046009;28;20091;-74
2023/04/28 05:22:11;;;;;;;11.60;4.10;;;;;;;10.21;46.03;99831.84;5032729;28;20507;-73
2023/04/28 05:24:36;;;;;;;8.38;5.13;;;;;;;10.13;46.39;99834.63;5037680;28;20044;-75
2023/04/28 05:27:05;;;;;;;8.80;4.07;;;;;;;10.02;46.37;99828.50;5031605;28;20041;-72
2023/04/28 05:29:30;;;;;;;16.15;5.75;;;;;;;10.46;45.98;99832.28;5038075;28;20024;-75
2023/04/28 05:31:56;;;;;;;9.70;4.45;;;;;;;10.72;46.12;99837.09;5032906;28;20565;-75
2023/04/28 05:34:21;;;;;;;16.48;5.65;;;;;;;10.25;45.67;99832.03;5037632;28;20037;-73
2023/04/28 05:36:47;;;;;;;17.80;4.43;;;;;;;10.48;45.94;99827.19;5028277;28;20488;-75
2023/04/28 05:39:12;;;;;;;7.10;3.92;;;;;;;10.40;44.05;99830.78;5029777;28;20496;-73
2023/04/28 05:41:37;;;;;;;8.05;3.72;;;;;;;10.40;45.65;99833.56;5035502;28;20481;-71
2023/04/28 05:44:03;;;;;;;4.65;3.80;;;;;;;10.34;44.52;99837.66;5039175;28;20052;-71
2023/04/28 05:46:30;;;;;;;6.20;4.28;;;;;;;10.42;44.31;99834.09;5042017;28;20033;-73
2023/04/28 05:48:55;;;;;;;9.05;4.28;;;;;;;10.70;44.10;99839.41;5029369;28;20477;-73
2023/04/28 05:51:21;;;;;;;7.13;3.90;;;;;;;10.62;43.71;99848.63;5031415;28;20036;-75
2023/04/28 05:53:47;;;;;;;6.57;4.20;;;;;;;10.65;43.18;99845.16;5035709;28;20037;-73
2023/04/28 05:56:13;;;;;;;10.90;4.03;;;;;;;10.92;43.76;99851.59;5032650;28;20021;-72
2023/04/28 05:58:39;;;;;;;8.02;4.35;;;;;;;10.45;43.49;99849.41;5037491;28;20021;-75
2023/04/28 06:01:05;;;;;;;8.02;3.83;;;;;;;10.85;42.42;99852.09;5034295;28;20029;-74
2023/04/28 06:03:31;;;;;;;5.93;3.92;;;;;;;10.93;42.58;99859.69;5032364;28;20037;-74
2023/04/28 06:05:56;;;;;;;7.90;4.05;;;;;;;11.03;41.41;99849.31;5032554;28;20029;-73
2023/04/28 06:08:22;;;;;;;4.80;3.83;;;;;;;11.32;41.01;99859.84;5035453;28;20048;-72
2023/04/28 06:10:47;;;;;;;5.10;3.65;;;;;;;11.59;40.56;99846.63;5031851;28;20178;-73
2023/04/28 06:13:12;;;;;;;11.00;4.13;;;;;;;11.52;40.92;99857.50;5046144;28;20032;-72
2023/04/28 06:15:38;;;;;;;10.38;4.32;;;;;;;11.64;40.67;99852.06;5043635;28;20377;-72
2023/04/28 06:18:06;;;;;;;6.78;4.53;;;;;;;11.69;41.62;99853.84;5030310;28;20385;-73
2023/04/28 06:20:31;;;;;;;9.02;4.05;;;;;;;11.61;40.16;99855.53;5031266;28;20033;-74
2023/04/28 06:22:57;;;;;;;13.30;5.28;;;;;;;11.95;39.74;99855.75;5028256;28;20033;-71
2023/04/28 06:25:23;;;;;;;11.85;4.00;;;;;;;12.12;41.15;99857.72;5042229;28;20381;-70
2023/04/28 06:27:48;;;;;;;5.55;4.40;;;;;;;11.87;40.97;99857.44;5040613;28;20767;-74
2023/04/28 06:30:20;;;;;;;12.20;5.55;;;;;;;12.24;40.34;99858.97;5032616;28;20028;-69
2023/04/28 06:32:46;;;;;;;8.20;4.55;;;;;;;12.40;39.69;99848.03;5028164;28;20065;-75
2023/04/28 06:35:12;;;;;;;10.40;4.15;;;;;;;12.80;39.77;99858.03;5030595;28;20087;-75
2023/04/28 06:37:37;;;;;;;9.73;4.47;;;;;;;12.69;39.64;99858.41;5036927;28;20040;-75
2023/04/28 06:40:03;;;;;;;7.93;3.22;;;;;;;13.25;37.85;99857.31;5032574;28;20033;-72
2023/04/28 06:42:28;;;;;;;5.65;3.50;;;;;;;12.89;37.75;99853.97;5037900;28;20302;-70
2023/04/28 06:44:54;;;;;;;7.82;3.55;;;;;;;12.48;38.17;99853.56;5042517;28;20148;-70
2023/04/28 06:47:20;;;;;;;5.93;3.13;;;;;;;12.48;37.60;99853.56;5034678;28;20040;-73
2023/04/28 06:49:48;;;;;;;5.22;3.75;;;;;;;12.43;38.29;99850.97;5036527;28;20017;-72
2023/04/28 06:52:14;;;;;;;6.03;3.35;;;;;;;12.30;38.40;99852.84;5033999;28;20025;-72
2023/04/28 06:54:40;;;;;;;6.32;3.60;;;;;;;12.83;38.10;99858.13;5036267;28;20104;-72
2023/04/28 06:57:05;;;;;;;8.27;3.22;;;;;;;12.36;37.77;99848.69;5045562;28;20039;-71
2023/04/28 06:59:31;;;;;;;4.90;3.33;;;;;;;12.54;36.91;99856.19;5034522;28;20033;-72
2023/04/28 07:01:56;;;;;;;5.53;4.47;;;;;;;13.14;36.61;99853.28;5033461;28;20033;-73
2023/04/28 07:04:22;;;;;;;3.60;3.15;;;;;;;13.45;36.19;99858.50;5047572;28;20498;-73
2023/04/28 07:06:47;;;;;;;6.13;3.75;;;;;;;14.21;36.08;99851.06;5036040;28;20610;-73
2023/04/28 07:09:14;;;;;;;7.65;2.80;;;;;;;13.37;35.04;99859.38;5038248;28;20044;-73
2023/04/28 07:11:40;;;;;;;3.97;3.60;;;;;;;13.57;35.10;99862.50;5033792;28;20047;-73
2023/04/28 07:14:07;;;;;;;8.00;3.50;;;;;;;13.33;34.76;99862.03;5033916;28;20040;-73
2023/04/28 07:16:32;;;;;;;8.60;3.47;;;;;;;13.95;35.95;99857.81;5033008;28;20022;-74
2023/04/28 07:18:58;;;;;;;6.10;3.50;;;;;;;14.56;34.66;99854.25;5033020;28;20533;-74
2023/04/28 07:21:23;;;;;;;5.43;3.42;;;;;;;14.12;33.45;99852.00;5034933;28;20017;-78
2023/04/28 07:23:49;;;;;;;5.15;3.00;;;;;;;14.11;34.70;99849.53;5037621;28;20488;-74
2023/04/28 07:26:15;;;;;;;7.68;3.33;;;;;;;14.21;34.17;99851.88;5041571;28;20017;-70
2023/04/28 07:28:44;;;;;;;4.78;2.90;;;;;;;14.91;33.88;99854.94;5047374;28;20029;-73
2023/04/28 07:31:10;;;;;;;4.78;3.35;;;;;;;14.97;34.97;99848.69;5042509;28;20033;-70
2023/04/28 07:33:35;;;;;;;4.60;3.63;;;;;;;14.74;33.59;99846.38;5034806;28;20130;-70
2023/04/28 07:36:01;;;;;;;6.47;3.20;;;;;;;14.96;33.03;99857.50;5044267;28;20017;-71
2023/04/28 07:38:26;;;;;;;6.47;2.92;;;;;;;14.76;33.67;99836.75;5042429;28;20455;-73
2023/04/28 07:40:52;;;;;;;6.15;3.30;;;;;;;15.18;34.22;99832.78;5048033;28;20405;-74
2023/04/28 07:43:19;;;;;;;3.70;2.50;;;;;;;14.97;32.75;99830.97;5029065;28;20068;-75
2023/04/28 07:45:47;;;;;;;5.18;3.40;;;;;;;15.29;33.02;99840.34;5050058;28;20028;-77
2023/04/28 07:48:17;;;;;;;5.30;3.30;;;;;;;15.18;32.16;99825.13;5035310;28;20216;-75
2023/04/28 07:50:42;;;;;;;4.35;2.45;;;;;;;15.21;32.48;99832.06;5049135;28;20028;-75
2023/04/28 07:53:08;;;;;;;3.65;2.75;;;;;;;15.11;32.14;99845.47;5038775;28;20033;-74
2023/04/28 07:55:33;;;;;;;3.95;2.53;;;;;;;15.88;33.25;99848.44;5030086;28;20021;-74
2023/04/28 07:57:59;;;;;;;5.75;3.05;;;;;;;15.99;31.51;99824.19;5034801;28;20460;-75
2023/04/28 08:00:25;;;;;;;4.75;3.38;;;;;;;14.65;32.73;99817.50;5035346;28;20025;-70
2023/04/28 08:02:50;;;;;;;5.35;3.47;;;;;;;14.56;32.60;99820.47;5033628;28;20029;-70
2023/04/28 08:05:16;;;;;;;12.45;3.63;;;;;;;14.43;33.58;99813.22;5039388;28;20407;-74
2023/04/28 08:07:42;;;;;;;6.78;3.20;;;;;;;15.06;34.09;99811.94;5051571;28;20028;-73
2023/04/28 08:10:11;;;;;;;5.82;3.17;;;;;;;15.74;32.12;99809.38;5038085;28;20025;-73
2023/04/28 08:12:37;;;;;;;4.07;2.92;;;;;;;15.88;31.42;99822.22;5036068;28;20033;-74
2023/04/28 08:15:03;;;;;;;6.05;3.55;;;;;;;16.45;31.67;99816.41;5033510;28;20495;-75
2023/04/28 08:17:28;;;;;;;8.30;3.20;;;;;;;16.60;30.68;99818.38;5038435;28;20016;-74
2023/04/28 08:19:54;;;;;;;8.63;3.60;;;;;;;17.08;30.22;99817.44;5052049;28;20416;-74
2023/04/28 08:22:19;;;;;;;7.65;3.42;;;;;;;16.93;29.89;99819.91;5043905;28;20029;-74
2023/04/28 08:24:45;;;;;;;11.85;3.40;;;;;;;17.07;29.88;99816.59;5037591;28;20037;-73
2023/04/28 08:27:11;;;;;;;5.93;2.90;;;;;;;17.11;30.72;99816.69;5040913;28;20033;-74
2023/04/28 08:29:37;;;;;;;6.65;2.88;;;;;;;17.00;30.72;99819.28;5033322;28;20025;-74
2023/04/28 08:32:03;;;;;;;5.30;2.85;;;;;;;16.86;30.67;99811.28;5031759;28;20028;-75
2023/04/28 08:34:29;;;;;;;6.35;3.00;;;;;;;16.79;30.53;99809.13;5032786;28;20029;-75
2023/04/28 08:36:54;;;;;;;10.90;3.03;;;;;;;17.32;32.83;99802.19;5033438;28;20419;-74
2023/04/28 08:39:22;;;;;;;7.00;2.60;;;;;;;17.15;29.58;99805.47;5033708;28;20028;-76
2023/04/28 08:41:47;;;;;;;7.93;3.22;;;;;;;17.37;31.15;99804.72;5041724;28;20086;-77
2023/04/28 08:44:13;;;;;;;6.28;3.83;;;;;;;17.36;28.92;99802.25;5035921;28;20080;-74
2023/04/28 08:46:41;;;;;;;9.55;3.78;;;;;;;17.33;28.53;99798.19;5037478;28;20023;-75
2023/04/28 08:49:13;;;;;;;8.93;3.13;;;;;;;16.53;29.90;99790.78;5030853;28;20055;-73
2023/04/28 08:51:51;;;;;;;9.75;3.70;;;;;;;16.90;30.33;99800.91;5030781;28;20493;-71
2023/04/28 08:54:19;;;;;;;5.75;3.22;;;;;;;17.21;29.56;99793.47;5030578;28;20032;-75
2023/04/28 08:56:45;;;;;;;5.63;4.05;;;;;;;17.30;30.03;99798.09;5042449;28;20024;-74
2023/04/28 08:59:12;;;;;;;5.40;3.30;;;;;;;17.09;29.82;99782.31;5037262;28;20024;-74
2023/04/28 09:01:38;;;;;;;4.93;2.42;;;;;;;17.87;29.11;99789.06;5041582;28;20034;-71
2023/04/28 09:04:03;;;;;;;6.72;3.67;;;;;;;18.08;28.34;99786.59;5034872;28;20028;-72
2023/04/28 09:06:38;;;;;;;6.22;3.80;;;;;;;17.61;28.74;99782.13;5029053;28;20092;-73
2023/04/28 09:09:19;;;;;;;8.35;3.65;;;;;;;18.07;28.33;99781.34;5040281;28;20107;-72
2023/04/28 09:11:58;;;;;;;7.13;3.15;;;;;;;18.53;28.21;99774.78;5038601;28;20025;-71
2023/04/28 09:14:27;;;;;;;18.40;3.67;;;;;;;18.37;27.55;99775.75;5030444;28;20094;-70
2023/04/28 09:16:53;;;;;;;4.95;3.17;;;;;;;18.28;28.96;99768.72;5029901;28;20025;-69
2023/04/28 09:19:19;;;;;;;6.03;3.35;;;;;;;17.75;29.73;99776.75;5044544;28;20516;-70
2023/04/28 09:21:55;;;;;;;5.10;3.08;;;;;;;17.52;29.79;99766.22;5030474;28;20040;-72
2023/04/28 09:24:29;;;;;;;8.70;3.55;;;;;;;17.69;29.40;99769.75;5040201;28;20025;-72
2023/04/28 09:26:54;;;;;;;3.83;2.63;;;;;;;17.22;29.62;99771.69;5044925;28;20036;-72
2023/04/28 09:29:20;;;;;;;6.78;3.03;;;;;;;16.77;29.30;99773.94;5029211;28;20025;-72
2023/04/28 09:31:45;;;;;;;5.45;2.63;;;;;;;16.91;29.16;99765.81;5032117;28;20037;-71
2023/04/28 09:34:11;;;;;;;7.15;3.17;;;;;;;16.97;29.97;99764.31;5028535;28;20182;-71
2023/04/28 09:36:37;;;;;;;5.38;3.17;;;;;;;17.08;29.74;99763.75;5028899;28;20511;-71
2023/04/28 09:39:03;;;;;;;15.25;3.63;;;;;;;17.65;28.73;99768.88;5029856;28;20057;-71
2023/04/28 09:41:39;;;;;;;11.43;3.65;;;;;;;18.27;27.73;99764.25;5043838;28;20483;-72
2023/04/28 09:44:20;;;;;;;10.35;5.57;;;;;;;18.57;28.97;99764.28;5042758;28;20508;-68
2023/04/28 09:46:46;;;;;;;8.88;4.65;;;;;;;18.73;29.01;99752.00;5033774;28;20033;-72
2023/04/28 09:49:12;;;;;;;10.73;3.25;;;;;;;18.85;28.74;99754.56;5030588;28;20025;-73
2023/04/28 09:51:38;;;;;;;4.07;2.72;;;;;;;18.42;26.25;99745.47;5032363;28;20162;-73
2023/04/28 09:54:04;;;;;;;6.65;2.47;;;;;;;18.72;26.18;99744.69;5032678;28;20412;-73
2023/04/28 09:56:32;;;;;;;8.80;3.38;;;;;;;18.47;25.70;99740.28;5028679;28;20029;-75
2023/04/28 09:58:58;;;;;;;9.43;3.13;;;;;;;18.56;26.58;99737.19;5028507;28;20108;-73
2023/04/28 10:01:26;;;;;;;4.47;3.45;;;;;;;18.54;27.51;99735.94;5035144;28;20481;-74
2023/04/28 10:03:52;;;;;;;3.13;2.70;;;;;;;17.66;26.40;99734.53;5048380;28;20028;-72
2023/04/28 10:06:18;;;;;;;12.20;2.80;;;;;;;17.50;26.96;99736.69;5029162;28;20480;-73
2023/04/28 10:08:47;;;;;;;6.88;3.20;;;;;;;18.01;25.82;99729.88;5026087;28;20097;-75
2023/04/28 10:11:15;;;;;;;2.85;1.92;;;;;;;18.76;27.54;99725.72;5034712;28;20021;-71
2023/04/28 10:13:42;;;;;;;5.05;2.80;;;;;;;18.93;26.47;99727.94;5028684;28;20083;-70
2023/04/28 10:16:09;;;;;;;4.28;2.30;;;;;;;19.04;24.49;99715.97;5027302;28;20026;-74
2023/04/28 10:18:36;;;;;;;10.48;2.33;;;;;;;19.82;24.58;99713.50;5030924;28;20096;-74
2023/04/28 10:21:03;;;;;;;5.13;2.85;;;;;;;18.81;24.24;99714.03;5038696;28;20029;-74
2023/04/28 10:23:53;;;;;;;9.63;2.78;;;;;;;19.25;25.04;99698.38;5035150;28;20488;-71
2023/04/28 10:26:20;;;;;;;4.68;3.03;;;;;;;19.59;25.23;99703.16;5037499;28;20123;-73
2023/04/28 10:28:47;;;;;;;11.90;3.67;;;;;;;20.16;26.40;99704.88;5037935;28;20040;-72
2023/04/28 10:31:14;;;;;;;5.75;3.10;;;;;;;20.10;24.30;99706.44;5031746;28;20377;-72
2023/04/28 10:33:41;;;;;;;7.97;4.07;;;;;;;19.14;25.50;99692.59;5033119;28;20100;-73
2023/04/28 10:36:06;;;;;;;3.40;2.65;;;;;;;19.08;25.68;99691.31;5031209;28;20018;-73
2023/04/28 10:38:33;;;;;;;3.33;2.38;;;;;;;18.83;25.07;99694.66;5038198;28;20086;-72
2023/04/28 10:41:03;;;;;;;5.75;2.83;;;;;;;18.43;26.65;99698.97;5037814;28;20120;-73
2023/04/28 10:43:29;;;;;;;6.00;2.92;;;;;;;19.19;25.06;99692.25;5033546;28;20045;-73
2023/04/28 10:46:00;;;;;;;3.80;2.80;;;;;;;18.76;26.19;99689.72;5030484;28;20524;-74
2023/04/28 10:48:32;;;;;;;11.40;3.88;;;;;;;18.75;25.67;99687.25;5030676;28;20044;-73
2023/04/28 10:51:11;;;;;;;2.97;2.35;;;;;;;18.54;27.63;99680.09;5036293;28;20116;-72
2023/04/28 10:53:43;;;;;;;5.88;2.88;;;;;;;19.06;24.39;99685.19;5031785;28;20029;-72
2023/04/28 10:56:18;;;;;;;7.03;3.05;;;;;;;19.46;25.25;99679.94;5030785;28;20555;-71
2023/04/28 10:58:45;;;;;;;3.65;2.60;;;;;;;20.17;26.95;99666.75;5030588;28;20411;-72
2023/04/28 11:01:23;;;;;;;2.83;2.22;;;;;;;20.58;23.93;99671.44;5038864;28;20026;-72
2023/04/28 11:04:13;;;;;;;3.03;2.70;;;;;;;20.71;22.85;99681.22;5039273;28;20079;-72
2023/04/28 11:06:39;;;;;;;6.53;2.63;;;;;;;21.18;23.16;99660.69;5033009;28;20046;-72
2023/04/28 11:09:14;;;;;;;3.72;2.25;;;;;;;20.97;22.28;99664.28;5040365;28;20412;-72
2023/04/28 11:12:09;;;;;;;6.18;2.05;;;;;;;20.89;23.76;99664.28;5039160;28;20025;-72
2023/04/28 11:14:36;;;;;;;3.30;2.72;;;;;;;20.57;25.10;99656.41;5034305;28;20080;-72
2023/04/28 11:17:07;;;;;;;3.30;2.40;;;;;;;20.41;26.43;99650.25;5031361;28;20014;-72
2023/04/28 11:19:41;;;;;;;6.00;2.40;;;;;;;20.58;25.30;99654.38;5035347;28;20029;-72
2023/04/28 11:22:20;;;;;;;6.30;2.58;;;;;;;21.14;25.70;99652.16;5032637;28;20052;-71
2023/04/28 11:24:56;;;;;;;5.68;2.92;;;;;;;20.85;25.19;99649.22;5033363;28;20025;-72
2023/04/28 11:27:32;;;;;;;4.70;2.78;;;;;;;20.74;26.09;99648.34;5038871;28;20038;-72
2023/04/28 11:29:58;;;;;;;6.43;2.53;;;;;;;20.84;23.37;99638.25;5039990;28;20037;-71
2023/04/28 11:32:30;;;;;;;5.95;2.50;;;;;;;20.92;26.19;99639.88;5037788;28;20500;-71